createdAt,value
2022-10-27T00:00:00.354Z,202.5
2022-10-27T00:05:00.318Z,202.5
2022-10-27T00:10:00.334Z,202.5
2022-10-27T00:15:00.350Z,202.5
2022-10-27T00:20:00.606Z,202.5
2022-10-27T00:25:00.336Z,202.5
2022-10-27T00:30:00.338Z,202.5
2022-10-27T00:35:00.311Z,202.5
2022-10-27T00:40:00.374Z,202.5
2022-10-27T00:45:00.684Z,202.5
2022-10-27T00:50:00.341Z,202.5
2022-10-27T00:55:00.450Z,202.5
2022-10-27T01:00:00.406Z,202.5
2022-10-27T01:05:00.304Z,202.5
2022-10-27T01:10:00.348Z,202.5
2022-10-27T01:15:00.351Z,202.5
2022-10-27T01:20:00.450Z,202.5
2022-10-27T01:25:00.340Z,202.5
2022-10-27T01:30:00.377Z,180.4
2022-10-27T01:35:00.318Z,180.0
2022-10-27T01:40:00.380Z,180.0
2022-10-27T01:45:00.503Z,180.0
2022-10-27T01:50:00.367Z,180.0
2022-10-27T01:55:00.338Z,180.0
2022-10-27T02:00:00.333Z,180.0
2022-10-27T02:05:00.335Z,180.0
2022-10-27T02:10:00.456Z,180.0
2022-10-27T02:15:00.382Z,180.0
2022-10-27T02:20:00.713Z,180.0
2022-10-27T02:25:00.454Z,180.0
2022-10-27T02:30:00.327Z,180.0
2022-10-27T02:35:00.335Z,180.0
2022-10-27T02:40:00.365Z,186.5
2022-10-27T02:45:00.312Z,180.3
2022-10-27T02:50:00.350Z,180.0
2022-10-27T02:55:00.369Z,180.0
2022-10-27T03:00:00.409Z,180.0
2022-10-27T03:05:00.354Z,202.3
2022-10-27T03:10:00.565Z,202.5
2022-10-27T03:15:00.335Z,191.4
2022-10-27T03:20:00.836Z,180.1
2022-10-27T03:25:00.354Z,195.6
2022-10-27T03:30:00.386Z,189.7
2022-10-27T03:35:00.312Z,180.2
2022-10-27T03:40:00.408Z,201.2
2022-10-27T03:45:00.369Z,201.6
2022-10-27T03:50:00.372Z,198.5
2022-10-27T03:55:00.500Z,202.5
2022-10-27T04:00:00.380Z,200.3
2022-10-27T04:05:00.320Z,202.5
2022-10-27T04:10:00.365Z,202.5
2022-10-27T04:15:00.438Z,202.5
2022-10-27T04:20:00.325Z,202.5
2022-10-27T04:25:00.338Z,202.5
2022-10-27T04:30:00.358Z,202.5
2022-10-27T04:35:00.324Z,202.5
2022-10-27T04:40:00.407Z,202.5
2022-10-27T04:45:00.348Z,202.5
2022-10-27T04:50:00.342Z,202.5
2022-10-27T04:55:00.521Z,202.5
2022-10-27T05:00:00.397Z,195.4
2022-10-27T05:05:00.489Z,180.1
2022-10-27T05:10:00.350Z,180.0
2022-10-27T05:15:00.375Z,180.0
2022-10-27T05:20:00.483Z,180.0
2022-10-27T05:25:00.329Z,180.0
2022-10-27T05:30:00.347Z,180.0
2022-10-27T05:35:00.371Z,180.0
2022-10-27T05:40:00.355Z,180.0
2022-10-27T05:45:00.342Z,180.0
2022-10-27T05:50:00.377Z,180.0
2022-10-27T05:55:00.290Z,180.0
2022-10-27T06:00:00.343Z,180.0
2022-10-27T06:05:00.329Z,180.0
2022-10-27T06:10:00.377Z,180.0
2022-10-27T06:15:00.395Z,180.0
2022-10-27T06:20:00.369Z,181.0
2022-10-27T06:25:00.350Z,179.4
2022-10-27T06:30:00.374Z,180.0
2022-10-27T06:35:00.328Z,175.7
2022-10-27T06:40:00.348Z,159.0
2022-10-27T06:45:00.361Z,158.8
2022-10-27T06:50:00.368Z,158.2
2022-10-27T06:55:00.333Z,176.5
2022-10-27T07:00:00.382Z,175.3
2022-10-27T07:05:00.317Z,179.8
2022-10-27T07:15:00.344Z,180.0
2022-10-27T07:20:00.370Z,180.5
2022-10-27T07:25:00.333Z,175.2
2022-10-27T07:30:00.367Z,174.6
2022-10-27T07:35:00.375Z,194.5
2022-10-27T07:40:00.384Z,171.0
2022-10-27T07:45:00.359Z,182.3
2022-10-27T07:50:00.349Z,188.5
2022-10-27T07:55:00.328Z,200.3
2022-10-27T08:00:00.409Z,181.7
2022-10-27T08:05:00.373Z,160.4
2022-10-27T08:10:00.415Z,178.4
2022-10-27T08:15:00.398Z,171.8
2022-10-27T08:20:00.397Z,178.1
2022-10-27T08:25:10.028Z,185.4
2022-10-27T08:30:00.385Z,176.7
2022-10-27T08:35:00.337Z,177.1
2022-10-27T08:40:00.404Z,185.2
2022-10-27T08:45:00.351Z,176.1
2022-10-27T08:50:00.356Z,187.2
2022-10-27T08:55:00.435Z,199.3
2022-10-27T09:00:00.376Z,210.5
2022-10-27T09:05:00.306Z,195.2
2022-10-27T09:10:00.359Z,195.9
2022-10-27T09:15:00.418Z,174.6
2022-10-27T09:20:00.362Z,198.4
2022-10-27T09:25:00.396Z,179.2
2022-10-27T09:30:09.336Z,178.0
2022-10-27T09:35:00.365Z,192.6
2022-10-27T09:40:00.422Z,172.3
2022-10-27T09:45:00.343Z,198.0
2022-10-27T09:50:00.420Z,185.5
2022-10-27T09:55:00.333Z,195.7
2022-10-27T10:00:00.392Z,195.8
2022-10-27T10:05:00.370Z,202.2
2022-10-27T10:10:00.391Z,195.1
2022-10-27T10:15:00.417Z,182.3
2022-10-27T10:20:00.340Z,182.6
2022-10-27T10:25:00.371Z,198.2
2022-10-27T10:30:01.468Z,200.9
2022-10-27T10:35:00.355Z,200.8
2022-10-27T10:40:00.393Z,192.9
2022-10-27T10:45:00.979Z,200.4
2022-10-27T10:50:00.344Z,207.6
2022-10-27T10:55:00.348Z,202.1
2022-10-27T11:00:00.486Z,203.0
2022-10-27T11:05:00.348Z,203.9
2022-10-27T11:10:10.112Z,222.2
2022-10-27T11:15:00.390Z,195.5
2022-10-27T11:20:00.363Z,220.5
2022-10-27T11:25:00.349Z,200.0
2022-10-27T11:30:00.753Z,203.8
2022-10-27T11:35:00.319Z,191.6
2022-10-27T11:40:00.356Z,206.9
2022-10-27T11:45:00.357Z,181.2
2022-10-27T11:50:00.318Z,170.7
2022-10-27T11:55:00.758Z,167.6
2022-10-27T12:00:00.398Z,196.9
2022-10-27T12:05:00.344Z,170.9
2022-10-27T12:10:00.395Z,194.5
2022-10-27T12:15:00.341Z,174.2
2022-10-27T12:20:01.013Z,207.0
2022-10-27T12:25:00.344Z,200.3
2022-10-27T12:30:00.391Z,191.5
2022-10-27T12:35:00.350Z,184.0
2022-10-27T12:40:00.368Z,213.5
2022-10-27T12:45:00.790Z,192.7
2022-10-27T12:50:00.367Z,200.1
2022-10-27T12:55:00.404Z,194.9
2022-10-27T13:00:00.392Z,186.1
2022-10-27T13:05:00.342Z,183.4
2022-10-27T13:10:00.378Z,179.0
2022-10-27T13:15:00.372Z,169.3
2022-10-27T13:20:08.537Z,184.4
2022-10-27T13:25:00.428Z,179.7
2022-10-27T13:30:00.411Z,167.5
2022-10-27T13:35:00.506Z,175.6
2022-10-27T13:40:00.395Z,186.7
2022-10-27T13:45:02.046Z,171.3
2022-10-27T13:50:00.441Z,164.6
2022-10-27T13:55:00.415Z,179.3
2022-10-27T14:00:00.511Z,177.2
2022-10-27T14:05:00.404Z,171.7
2022-10-27T14:10:00.394Z,169.5
2022-10-27T14:15:00.344Z,171.2
2022-10-27T14:20:00.445Z,192.7
2022-10-27T14:25:00.413Z,186.3
2022-10-27T14:30:00.442Z,177.6
2022-10-27T14:35:00.400Z,167.8
2022-10-27T14:40:00.396Z,177.2
2022-10-27T14:45:00.354Z,180.1
2022-10-27T14:50:00.506Z,182.7
2022-10-27T14:55:00.801Z,174.4
2022-10-27T15:00:00.417Z,173.9
2022-10-27T15:05:02.140Z,166.4
2022-10-27T15:10:00.381Z,174.5
2022-10-27T15:15:00.374Z,177.3
2022-10-27T15:20:00.465Z,170.4
2022-10-27T15:25:00.376Z,159.2
2022-10-27T15:30:00.424Z,160.5
2022-10-27T15:35:00.355Z,158.5
2022-10-27T15:40:00.416Z,169.2
2022-10-27T15:45:00.381Z,159.6
2022-10-27T15:50:00.330Z,163.9
2022-10-27T15:55:08.315Z,176.5
2022-10-27T16:00:00.359Z,181.6
2022-10-27T16:05:00.354Z,188.3
2022-10-27T16:10:00.386Z,180.4
2022-10-27T16:15:00.410Z,165.9
2022-10-27T16:20:00.410Z,202.0
2022-10-27T16:25:00.312Z,158.0
2022-10-27T16:30:00.396Z,159.6
2022-10-27T16:35:00.340Z,201.7
2022-10-27T16:40:00.425Z,202.5
2022-10-27T16:45:00.489Z,177.0
2022-10-27T16:50:00.351Z,156.3
2022-10-27T16:55:00.292Z,157.1
2022-10-27T17:00:00.401Z,157.3
2022-10-27T17:05:00.330Z,157.5
2022-10-27T17:10:00.359Z,157.5
2022-10-27T17:15:00.341Z,157.5
2022-10-27T17:20:00.537Z,156.8
2022-10-27T17:25:00.331Z,157.4
2022-10-27T17:30:00.893Z,157.4
2022-10-27T17:35:00.362Z,157.5
2022-10-27T17:40:00.724Z,157.5
2022-10-27T17:45:00.346Z,157.5
2022-10-27T17:50:09.491Z,173.1
2022-10-27T17:55:00.330Z,157.4
2022-10-27T18:00:00.385Z,139.1
2022-10-27T18:05:00.413Z,157.4
2022-10-27T18:10:00.418Z,157.5
2022-10-27T18:15:35.709Z,155.9
2022-10-27T18:20:00.360Z,150.8
2022-10-27T18:25:00.347Z,155.2
2022-10-27T18:30:00.368Z,156.2
2022-10-27T18:35:00.360Z,157.5
2022-10-27T18:40:00.423Z,157.3
2022-10-27T18:45:00.381Z,159.0
2022-10-27T18:50:00.392Z,158.4
2022-10-27T18:55:00.359Z,149.4
2022-10-27T19:00:00.384Z,157.9
2022-10-27T19:05:00.520Z,154.2
2022-10-27T19:10:00.378Z,157.5
2022-10-27T19:15:00.375Z,171.3
2022-10-27T19:20:00.392Z,157.7
2022-10-27T19:25:00.362Z,157.5
2022-10-27T19:30:00.414Z,157.3
2022-10-27T19:35:00.363Z,157.5
2022-10-27T19:40:00.365Z,157.2
2022-10-27T19:45:00.321Z,158.2
2022-10-27T19:50:00.325Z,156.7
2022-10-27T19:55:00.331Z,157.5
2022-10-27T20:00:08.451Z,147.5
2022-10-27T20:05:00.341Z,155.4
2022-10-27T20:10:00.337Z,157.5
2022-10-27T20:15:00.374Z,157.6
2022-10-27T20:20:00.339Z,144.7
2022-10-27T20:25:00.328Z,152.3
2022-10-27T20:30:00.357Z,156.7
2022-10-27T20:35:00.367Z,157.1
2022-10-27T20:40:00.361Z,161.6
2022-10-27T20:45:00.352Z,156.9
2022-10-27T20:50:00.378Z,149.1
2022-10-27T20:55:00.304Z,165.9
2022-10-27T21:00:00.384Z,156.2
2022-10-27T21:05:00.333Z,148.6
2022-10-27T21:10:00.349Z,159.8
2022-10-27T21:15:00.325Z,157.6
2022-10-27T21:20:00.375Z,152.5
2022-10-27T21:25:00.327Z,154.1
2022-10-27T21:30:00.418Z,150.2
2022-10-27T21:35:00.360Z,156.8
2022-10-27T21:40:00.454Z,170.5
2022-10-27T21:45:00.332Z,193.8
2022-10-27T21:50:00.371Z,179.9
2022-10-27T21:55:00.467Z,179.7
2022-10-27T22:00:00.385Z,175.2
2022-10-27T22:05:00.332Z,164.0
2022-10-27T22:10:00.421Z,168.8
2022-10-27T22:15:00.348Z,165.9
2022-10-27T22:20:00.403Z,170.7
2022-10-27T22:25:00.332Z,171.8
2022-10-27T22:30:00.459Z,177.4
2022-10-27T22:35:00.363Z,176.4
2022-10-27T22:40:00.364Z,163.6
2022-10-27T22:45:00.353Z,176.9
2022-10-27T22:50:00.397Z,173.6
2022-10-27T22:55:00.356Z,175.4
2022-10-27T23:00:00.397Z,175.5
2022-10-27T23:05:00.321Z,167.4
2022-10-27T23:10:00.507Z,168.0
2022-10-27T23:15:00.392Z,162.1
2022-10-27T23:20:09.393Z,167.6
2022-10-27T23:25:00.319Z,164.1
2022-10-27T23:30:00.536Z,161.0
2022-10-27T23:35:00.346Z,176.5
2022-10-27T23:40:00.342Z,180.2
2022-10-27T23:45:00.387Z,176.1
2022-10-27T23:50:00.356Z,172.0
2022-10-27T23:55:00.319Z,208.5
